»·PEaware :: N16RD KCRQ-KSAN

N16RD :: KCRQ-KSAN

FLIGHT INFORMATION

Flight Status: Arrived
Operator: Privately registered:
United States
More flights under this callsign
Pilot: Brett B. (12105)
Aircraft: CESSNA 152 AEROBAT
(C152)
More flights by this aircraft type
Origin: KCRQ McClellan-Palomar
United States
Destination: KSAN San Diego Intl-Lindbergh
United States
More flights between these airports :: More routes between these airports
Route: +MZB
File this flight plan on PilotEdge
Remarks:
Altitude:
(Current/Filed)
3,000ft
Speed:
(Current/Filed)
105kts
Departed: 31-Oct-17 07:29 PM
Arrived: 31-Oct-17 08:08 PM
Distance/Time
Traveled:
24nm/0:39
Distance/Time
To Go:
Arrived

Flight Plot

Page will automatically refresh every two minutes.


Map Options




Map Legend


Flown Route
Filed Route
Departure Airport
Arrival Airport
Navaid (VOR, NDB)
Fix

Horizontal Profiles

Position Reports

Time Latitude Longitude Heading Altitude Ground
Speed
31-Oct-17 19:21 33.126811 -117.281836 76 303ft 0kts
31-Oct-17 19:22 33.126811 -117.281836 76 303ft 0kts
31-Oct-17 19:23 33.126811 -117.281835 76 303ft 0kts
31-Oct-17 19:24 33.126811 -117.281835 76 303ft 0kts
31-Oct-17 19:25 33.126811 -117.281835 76 303ft 0kts
31-Oct-17 19:26 33.126811 -117.281834 76 303ft 0kts
31-Oct-17 19:27 33.126811 -117.281834 76 303ft 0kts
31-Oct-17 19:28 33.126811 -117.281834 76 303ft 0kts
31-Oct-17 19:29 33.126812 -117.281833 76 303ft 0kts
31-Oct-17 19:30 33.126812 -117.281833 76 303ft 0kts
31-Oct-17 19:31 33.127342 -117.280755 79 303ft 17kts
31-Oct-17 19:32 33.128199 -117.275086 79 303ft 34kts
31-Oct-17 19:33 33.128823 -117.272662 43 303ft 10kts
31-Oct-17 19:34 33.127625 -117.287732 267 608ft 75kts
31-Oct-17 19:35 33.127949 -117.312783 264 1266ft 76kts
31-Oct-17 19:36 33.126347 -117.337281 267 1955ft 70kts
31-Oct-17 19:37 33.123901 -117.360219 242 2608ft 69kts
31-Oct-17 19:38 33.106706 -117.361457 165 3143ft 69kts
31-Oct-17 19:39 33.087970 -117.355599 163 3646ft 69kts
31-Oct-17 19:40 33.068988 -117.350528 164 4096ft 70kts
31-Oct-17 19:41 33.049656 -117.345688 157 4532ft 71kts
31-Oct-17 19:42 33.031459 -117.335843 154 4919ft 74kts
31-Oct-17 19:43 33.011814 -117.325755 152 5126ft 90kts
31-Oct-17 19:44 32.987118 -117.312782 161 4938ft 96kts
31-Oct-17 19:45 32.967691 -117.294009 124 4921ft 92kts
31-Oct-17 19:46 32.953519 -117.268388 116 4934ft 92kts
31-Oct-17 19:47 32.939691 -117.242360 131 4953ft 92kts
31-Oct-17 19:48 32.925516 -117.216732 121 4961ft 92kts
31-Oct-17 19:49 32.910925 -117.191294 120 4979ft 93kts
31-Oct-17 19:50 32.896550 -117.166254 125 4997ft 93kts
31-Oct-17 19:51 32.882569 -117.140289 127 5012ft 93kts
31-Oct-17 19:52 32.865485 -117.117134 124 5025ft 93kts
31-Oct-17 19:53 32.851995 -117.090540 120 5028ft 93kts
31-Oct-17 19:54 32.838193 -117.063711 120 4983ft 95kts
31-Oct-17 19:55 32.825098 -117.036163 119 4965ft 95kts
31-Oct-17 19:56 32.811433 -117.009238 123 4951ft 95kts
31-Oct-17 19:57 32.796194 -116.983579 130 4938ft 95kts
31-Oct-17 19:58 32.779778 -116.956515 124 4611ft 109kts
31-Oct-17 19:59 32.761097 -116.926997 128 4037ft 108kts
31-Oct-17 20:00 32.744253 -116.899685 131 3920ft 98kts
31-Oct-17 20:01 32.725848 -116.877247 157 3974ft 95kts
31-Oct-17 20:02 32.699980 -116.881480 193 4019ft 95kts
31-Oct-17 20:03 32.679539 -116.897527 254 4026ft 96kts
31-Oct-17 20:04 32.673120 -116.928767 253 4029ft 100kts
31-Oct-17 20:05 32.677109 -116.963493 299 3583ft 106kts
31-Oct-17 20:06 32.686307 -116.996957 292 3268ft 112kts
31-Oct-17 20:07 32.694755 -117.033576 284 2603ft 117kts
31-Oct-17 20:08 32.705837 -117.069495 288 1991ft 115kts
31-Oct-17 20:09 32.713115 -117.105980 285 1294ft 113kts
31-Oct-17 20:10 32.720666 -117.136027 281 921ft 91kts
31-Oct-17 20:11 32.726724 -117.161152 283 436ft 63kts
31-Oct-17 20:12 32.731573 -117.181481 283 40ft 59kts
31-Oct-17 20:13 32.734714 -117.187800 16 18ft 24kts
31-Oct-17 20:14 32.735726 -117.187943 214 18ft 0kts
31-Oct-17 20:15 32.735726 -117.187943 214 18ft 0kts
31-Oct-17 20:16 32.735726 -117.187943 214 18ft 0kts
31-Oct-17 20:17 32.735726 -117.187943 214 18ft 0kts
31-Oct-17 20:18 32.735726 -117.187943 214 18ft 0kts
31-Oct-17 20:19 32.735726 -117.187943 214 18ft 0kts
31-Oct-17 20:20 32.735726 -117.187943 214 18ft 0kts
31-Oct-17 20:21 32.735726 -117.187943 214 18ft 0kts
31-Oct-17 20:22 32.735726 -117.187943 214 18ft 0kts
31-Oct-17 20:23 32.735726 -117.187943 214 18ft 0kts
31-Oct-17 20:24 32.735726 -117.187943 214 18ft 0kts
31-Oct-17 20:25 32.735726 -117.187943 214 18ft 0kts
31-Oct-17 20:26 32.735726 -117.187943 214 18ft 0kts
31-Oct-17 20:27 32.735726 -117.187943 214 18ft 0kts

Navigation Log

Ident Type
Flight plan parsing failed, navigation log unavailable